ENZ2LC EGLC-LFBE
Flight info
| Callsign | ENZ2LC |
|---|---|
| Flight time | 1h 25m |
| Altitude | 30000 |
| Route | SOQQA M87 EKNIV M91 LYD UM189 WAFFU DCT SITET/N0407F310 UN859 SOPIL DCT BALAN DCT LMG A34 BUGUS |
| Aircraft | RJ1H/M-SDFGIRWY/LB1 |
Departure
| Time | 2026-04-30 12:34 |
|---|---|
| Airport | London City Airport (EGLC) |
Arrival
| Time | 2026-04-30 13:59 |
|---|---|
| Airport | Bergerac Dordogne-Périgord airport (LFBE) |
| Time | Latitude | Longitude | Altitude | Speed | Heading |
|---|---|---|---|---|---|
| 2026-04-30 12:14 | 51.50440 | 0.04696 | 24 ft | 0 kts | 310° |
| 2026-04-30 12:32 | 51.50451 | 0.04691 | 26 ft | 4 kts | 5° |
| 2026-04-30 12:32 | 51.50472 | 0.04641 | 24 ft | 10 kts | 275° |
| 2026-04-30 12:32 | 51.50479 | 0.04504 | 25 ft | 14 kts | 275° |
| 2026-04-30 12:33 | 51.50527 | 0.04435 | 26 ft | 10 kts | 2° |
| 2026-04-30 12:33 | 51.50555 | 0.04512 | 24 ft | 0 kts | 92° |
| 2026-04-30 12:33 | 51.50554 | 0.04533 | 24 ft | 18 kts | 92° |
| 2026-04-30 12:33 | 51.50534 | 0.05152 | 24 ft | 91 kts | 94° |
| 2026-04-30 12:34 | 51.50497 | 0.06411 | 205 ft | 120 kts | 94° |
| 2026-04-30 12:34 | 51.50449 | 0.07724 | 777 ft | 118 kts | 93° |
| 2026-04-30 12:34 | 51.50407 | 0.09042 | 1282 ft | 113 kts | 94° |
| 2026-04-30 12:34 | 51.50471 | 0.10330 | 1714 ft | 120 kts | 65° |
| 2026-04-30 12:35 | 51.51123 | 0.11232 | 2248 ft | 127 kts | 43° |
| 2026-04-30 12:35 | 51.51852 | 0.12089 | 2720 ft | 135 kts | 46° |
| 2026-04-30 12:35 | 51.52358 | 0.12714 | 3062 ft | 141 kts | 46° |
| 2026-04-30 12:35 | 51.53177 | 0.13737 | 3479 ft | 162 kts | 46° |
| 2026-04-30 12:36 | 51.54141 | 0.15001 | 3644 ft | 193 kts | 46° |
| 2026-04-30 12:36 | 51.55390 | 0.17141 | 3819 ft | 206 kts | 75° |
| 2026-04-30 12:36 | 51.55727 | 0.19361 | 4342 ft | 203 kts | 82° |
| 2026-04-30 12:36 | 51.55935 | 0.20870 | 4708 ft | 206 kts | 82° |
| 2026-04-30 12:37 | 51.56231 | 0.23120 | 5223 ft | 206 kts | 83° |
| 2026-04-30 12:37 | 51.56847 | 0.26129 | 5663 ft | 226 kts | 73° |
| 2026-04-30 12:37 | 51.57281 | 0.27737 | 5789 ft | 237 kts | 71° |
| 2026-04-30 12:37 | 51.57822 | 0.29666 | 5926 ft | 249 kts | 70° |
| 2026-04-30 12:38 | 51.58582 | 0.32244 | 6175 ft | 260 kts | 70° |
| 2026-04-30 12:38 | 51.59374 | 0.34869 | 6567 ft | 261 kts | 69° |
| 2026-04-30 12:38 | 51.60180 | 0.37513 | 6912 ft | 265 kts | 69° |
| 2026-04-30 12:38 | 51.60732 | 0.40286 | 7224 ft | 259 kts | 93° |
| 2026-04-30 12:39 | 51.60448 | 0.43104 | 7559 ft | 256 kts | 105° |
| 2026-04-30 12:39 | 51.60118 | 0.45931 | 7926 ft | 258 kts | 102° |
| 2026-04-30 12:39 | 51.59829 | 0.48784 | 8277 ft | 259 kts | 102° |
| 2026-04-30 12:39 | 51.59517 | 0.51646 | 8608 ft | 261 kts | 103° |
| 2026-04-30 12:40 | 51.59197 | 0.54530 | 8938 ft | 263 kts | 103° |
| 2026-04-30 12:40 | 51.58732 | 0.57358 | 9234 ft | 262 kts | 119° |
| 2026-04-30 12:40 | 51.57446 | 0.59384 | 9479 ft | 266 kts | 153° |
| 2026-04-30 12:40 | 51.55620 | 0.59992 | 9803 ft | 273 kts | 172° |
| 2026-04-30 12:41 | 51.53719 | 0.60185 | 10092 ft | 274 kts | 172° |
| 2026-04-30 12:41 | 51.51821 | 0.60431 | 10364 ft | 276 kts | 172° |
| 2026-04-30 12:41 | 51.49901 | 0.60693 | 10669 ft | 277 kts | 171° |
| 2026-04-30 12:41 | 51.48002 | 0.60995 | 10961 ft | 278 kts | 170° |
| 2026-04-30 12:42 | 51.46059 | 0.61367 | 11241 ft | 280 kts | 169° |
| 2026-04-30 12:42 | 51.44132 | 0.61782 | 11633 ft | 281 kts | 168° |
| 2026-04-30 12:42 | 51.42193 | 0.62231 | 12002 ft | 283 kts | 168° |
| 2026-04-30 12:42 | 51.40246 | 0.62765 | 12384 ft | 284 kts | 163° |
| 2026-04-30 12:43 | 51.38345 | 0.63648 | 12788 ft | 285 kts | 160° |
| 2026-04-30 12:43 | 51.36456 | 0.64642 | 13194 ft | 287 kts | 159° |
| 2026-04-30 12:43 | 51.34563 | 0.65670 | 13600 ft | 289 kts | 159° |
| 2026-04-30 12:43 | 51.32660 | 0.66732 | 13988 ft | 291 kts | 158° |
| 2026-04-30 12:44 | 51.30742 | 0.67801 | 14394 ft | 292 kts | 159° |
| 2026-04-30 12:44 | 51.28808 | 0.68858 | 14792 ft | 294 kts | 159° |
| 2026-04-30 12:44 | 51.26865 | 0.69910 | 15186 ft | 296 kts | 159° |
| 2026-04-30 12:44 | 51.24932 | 0.70949 | 15585 ft | 297 kts | 159° |
| 2026-04-30 12:45 | 51.22985 | 0.72108 | 15997 ft | 299 kts | 156° |
| 2026-04-30 12:45 | 51.21067 | 0.73404 | 16411 ft | 300 kts | 155° |
| 2026-04-30 12:45 | 51.19144 | 0.74738 | 16821 ft | 302 kts | 154° |
| 2026-04-30 12:45 | 51.17215 | 0.76091 | 17215 ft | 304 kts | 154° |
| 2026-04-30 12:46 | 51.15272 | 0.77466 | 17615 ft | 306 kts | 154° |
| 2026-04-30 12:46 | 51.13319 | 0.78835 | 17996 ft | 308 kts | 155° |
| 2026-04-30 12:46 | 51.11342 | 0.80195 | 18359 ft | 310 kts | 155° |
| 2026-04-30 12:46 | 51.09356 | 0.81554 | 18682 ft | 312 kts | 155° |
| 2026-04-30 12:47 | 51.07356 | 0.82910 | 19033 ft | 313 kts | 155° |
| 2026-04-30 12:47 | 51.05348 | 0.84265 | 19363 ft | 314 kts | 155° |
| 2026-04-30 12:47 | 51.03336 | 0.85646 | 19665 ft | 316 kts | 154° |
| 2026-04-30 12:47 | 51.01297 | 0.86973 | 19934 ft | 318 kts | 161° |
| 2026-04-30 12:48 | 50.99074 | 0.87158 | 20182 ft | 328 kts | 189° |
| 2026-04-30 12:48 | 50.96985 | 0.85619 | 20411 ft | 339 kts | 214° |
| 2026-04-30 12:48 | 50.95255 | 0.83113 | 20635 ft | 343 kts | 220° |
| 2026-04-30 12:48 | 50.93535 | 0.80479 | 20866 ft | 345 kts | 220° |
| 2026-04-30 12:49 | 50.91783 | 0.77869 | 21118 ft | 346 kts | 219° |
| 2026-04-30 12:49 | 50.89996 | 0.75317 | 21366 ft | 346 kts | 217° |
| 2026-04-30 12:49 | 50.88165 | 0.72826 | 21628 ft | 347 kts | 216° |
| 2026-04-30 12:49 | 50.86302 | 0.70390 | 21839 ft | 348 kts | 215° |
| 2026-04-30 12:50 | 50.84415 | 0.67976 | 22065 ft | 349 kts | 214° |
| 2026-04-30 12:50 | 50.82517 | 0.65560 | 22296 ft | 351 kts | 214° |
| 2026-04-30 12:50 | 50.80611 | 0.63141 | 22532 ft | 352 kts | 214° |
| 2026-04-30 12:50 | 50.78697 | 0.60721 | 22756 ft | 353 kts | 214° |
| 2026-04-30 12:51 | 50.76769 | 0.58315 | 22975 ft | 354 kts | 214° |
| 2026-04-30 12:51 | 50.74833 | 0.55881 | 23181 ft | 356 kts | 214° |
| 2026-04-30 12:51 | 50.72898 | 0.53432 | 23416 ft | 357 kts | 214° |
| 2026-04-30 12:51 | 50.70965 | 0.50977 | 23626 ft | 358 kts | 214° |
| 2026-04-30 12:52 | 50.69039 | 0.48551 | 23822 ft | 359 kts | 213° |
| 2026-04-30 12:52 | 50.67080 | 0.46110 | 24023 ft | 360 kts | 213° |
| 2026-04-30 12:52 | 50.65108 | 0.43665 | 24247 ft | 361 kts | 213° |
| 2026-04-30 12:52 | 50.63141 | 0.41198 | 24453 ft | 362 kts | 214° |
| 2026-04-30 12:53 | 50.61177 | 0.38707 | 24639 ft | 363 kts | 214° |
| 2026-04-30 12:53 | 50.59190 | 0.36238 | 24831 ft | 363 kts | 211° |
| 2026-04-30 12:53 | 50.57069 | 0.34143 | 25042 ft | 359 kts | 203° |
| 2026-04-30 12:53 | 50.54827 | 0.32346 | 25065 ft | 364 kts | 200° |
| 2026-04-30 12:54 | 50.52513 | 0.30657 | 25087 ft | 369 kts | 199° |
| 2026-04-30 12:54 | 50.50189 | 0.29026 | 25508 ft | 362 kts | 199° |
| 2026-04-30 12:54 | 50.47922 | 0.27415 | 25964 ft | 355 kts | 199° |
| 2026-04-30 12:54 | 50.45681 | 0.25817 | 26227 ft | 353 kts | 199° |
| 2026-04-30 12:55 | 50.43447 | 0.24220 | 26454 ft | 352 kts | 199° |
| 2026-04-30 12:55 | 50.41249 | 0.22646 | 26672 ft | 352 kts | 199° |
| 2026-04-30 12:55 | 50.39025 | 0.21046 | 26888 ft | 351 kts | 199° |
| 2026-04-30 12:55 | 50.36807 | 0.19448 | 27129 ft | 350 kts | 199° |
| 2026-04-30 12:56 | 50.34602 | 0.17858 | 27340 ft | 349 kts | 199° |
| 2026-04-30 12:56 | 50.32399 | 0.16264 | 27541 ft | 348 kts | 199° |
| 2026-04-30 12:56 | 50.30200 | 0.14675 | 27733 ft | 348 kts | 199° |
| 2026-04-30 12:56 | 50.28003 | 0.13085 | 27956 ft | 348 kts | 199° |
| 2026-04-30 12:57 | 50.25811 | 0.11498 | 28176 ft | 347 kts | 199° |
| 2026-04-30 12:57 | 50.23621 | 0.09913 | 28397 ft | 347 kts | 199° |
| 2026-04-30 12:57 | 50.21436 | 0.08326 | 28609 ft | 346 kts | 199° |
| 2026-04-30 12:57 | 50.19255 | 0.06739 | 28813 ft | 346 kts | 199° |
| 2026-04-30 12:58 | 50.17076 | 0.05154 | 29012 ft | 345 kts | 199° |
| 2026-04-30 12:58 | 50.14901 | 0.03575 | 29207 ft | 344 kts | 199° |
| 2026-04-30 12:58 | 50.12723 | 0.02021 | 29405 ft | 344 kts | 198° |
| 2026-04-30 12:58 | 50.10510 | 0.00713 | 29557 ft | 335 kts | 183° |
| 2026-04-30 12:59 | 50.08238 | 0.00755 | 29704 ft | 324 kts | 167° |
| 2026-04-30 12:59 | 50.06033 | 0.01428 | 29859 ft | 323 kts | 162° |
| 2026-04-30 12:59 | 50.03858 | 0.02272 | 30035 ft | 321 kts | 161° |
| 2026-04-30 12:59 | 50.01710 | 0.03178 | 30114 ft | 318 kts | 160° |
| 2026-04-30 13:00 | 49.97501 | 0.04990 | 30137 ft | 316 kts | 161° |
| 2026-04-30 13:00 | 49.93184 | 0.06775 | 30150 ft | 326 kts | 161° |
| 2026-04-30 13:01 | 49.88723 | 0.08555 | 30153 ft | 335 kts | 162° |
| 2026-04-30 13:01 | 49.84133 | 0.10344 | 30151 ft | 345 kts | 162° |
| 2026-04-30 13:02 | 49.79410 | 0.12174 | 30150 ft | 354 kts | 162° |
| 2026-04-30 13:02 | 49.74571 | 0.14043 | 30147 ft | 363 kts | 162° |
| 2026-04-30 13:03 | 49.69615 | 0.15947 | 30145 ft | 371 kts | 162° |
| 2026-04-30 13:03 | 49.64585 | 0.17950 | 30141 ft | 375 kts | 162° |
| 2026-04-30 13:04 | 49.59510 | 0.20012 | 30133 ft | 377 kts | 162° |
| 2026-04-30 13:04 | 49.54425 | 0.22080 | 30132 ft | 379 kts | 162° |
| 2026-04-30 13:05 | 49.49322 | 0.24127 | 30126 ft | 379 kts | 162° |
| 2026-04-30 13:06 | 49.41650 | 0.27171 | 30127 ft | 382 kts | 162° |
| 2026-04-30 13:06 | 49.36491 | 0.29217 | 30127 ft | 383 kts | 162° |
| 2026-04-30 13:07 | 49.31320 | 0.31264 | 30124 ft | 384 kts | 162° |
| 2026-04-30 13:07 | 49.26155 | 0.33402 | 30127 ft | 385 kts | 161° |
| 2026-04-30 13:08 | 49.20984 | 0.35609 | 30128 ft | 386 kts | 162° |
| 2026-04-30 13:08 | 49.15827 | 0.37782 | 30123 ft | 387 kts | 162° |
| 2026-04-30 13:09 | 49.10624 | 0.39983 | 30121 ft | 389 kts | 162° |
| 2026-04-30 13:09 | 49.05404 | 0.42196 | 30125 ft | 390 kts | 162° |
| 2026-04-30 13:10 | 49.00160 | 0.44366 | 30125 ft | 391 kts | 162° |
| 2026-04-30 13:10 | 48.94903 | 0.46541 | 30120 ft | 392 kts | 162° |
| 2026-04-30 13:11 | 48.89632 | 0.48726 | 30121 ft | 393 kts | 163° |
| 2026-04-30 13:11 | 48.84352 | 0.50914 | 30113 ft | 393 kts | 163° |
| 2026-04-30 13:12 | 48.79062 | 0.53078 | 30117 ft | 394 kts | 163° |
| 2026-04-30 13:12 | 48.73795 | 0.55199 | 30121 ft | 395 kts | 164° |
| 2026-04-30 13:13 | 48.65790 | 0.58299 | 30111 ft | 396 kts | 163° |
| 2026-04-30 13:14 | 48.57773 | 0.61410 | 30112 ft | 396 kts | 164° |
| 2026-04-30 13:14 | 48.49753 | 0.64579 | 30110 ft | 397 kts | 163° |
| 2026-04-30 13:15 | 48.41742 | 0.67865 | 30098 ft | 398 kts | 163° |
| 2026-04-30 13:16 | 48.36433 | 0.70053 | 30102 ft | 398 kts | 163° |
| 2026-04-30 13:16 | 48.31081 | 0.72206 | 30094 ft | 398 kts | 163° |
| 2026-04-30 13:17 | 48.23067 | 0.75443 | 30091 ft | 398 kts | 164° |
| 2026-04-30 13:18 | 48.15009 | 0.78555 | 30089 ft | 398 kts | 164° |
| 2026-04-30 13:18 | 48.06976 | 0.81718 | 30093 ft | 398 kts | 164° |
| 2026-04-30 13:19 | 48.01616 | 0.83835 | 30092 ft | 398 kts | 164° |
| 2026-04-30 13:19 | 47.96260 | 0.85916 | 30095 ft | 398 kts | 164° |
| 2026-04-30 13:20 | 47.90878 | 0.88020 | 30091 ft | 400 kts | 164° |
| 2026-04-30 13:20 | 47.85485 | 0.90112 | 30082 ft | 399 kts | 164° |
| 2026-04-30 13:21 | 47.80108 | 0.92181 | 30081 ft | 399 kts | 164° |
| 2026-04-30 13:22 | 47.72084 | 0.95265 | 30082 ft | 399 kts | 164° |
| 2026-04-30 13:22 | 47.64035 | 0.98377 | 30081 ft | 398 kts | 164° |
| 2026-04-30 13:23 | 47.55983 | 1.01476 | 30079 ft | 398 kts | 164° |
| 2026-04-30 13:24 | 47.45262 | 1.05571 | 30070 ft | 398 kts | 166° |
| 2026-04-30 13:25 | 47.34192 | 1.06479 | 30075 ft | 400 kts | 180° |
| 2026-04-30 13:26 | 47.20289 | 1.05952 | 30082 ft | 401 kts | 179° |
| 2026-04-30 13:28 | 47.07296 | 1.05642 | 30079 ft | 400 kts | 179° |
| 2026-04-30 13:28 | 46.98942 | 1.05417 | 30085 ft | 400 kts | 180° |
| 2026-04-30 13:29 | 46.87789 | 1.04912 | 30087 ft | 401 kts | 180° |
| 2026-04-30 13:31 | 46.73910 | 1.04307 | 30097 ft | 400 kts | 180° |
| 2026-04-30 13:32 | 46.59991 | 1.03724 | 30103 ft | 400 kts | 180° |
| 2026-04-30 13:33 | 46.48859 | 1.03308 | 30108 ft | 400 kts | 179° |
| 2026-04-30 13:34 | 46.40506 | 1.03260 | 30101 ft | 400 kts | 179° |
| 2026-04-30 13:35 | 46.29416 | 1.03111 | 30106 ft | 400 kts | 179° |
| 2026-04-30 13:36 | 46.18300 | 1.02997 | 30111 ft | 400 kts | 179° |
| 2026-04-30 13:36 | 46.09956 | 1.02893 | 30116 ft | 399 kts | 179° |
| 2026-04-30 13:37 | 46.01622 | 1.02791 | 30121 ft | 399 kts | 179° |
| 2026-04-30 13:38 | 45.93323 | 1.02731 | 30122 ft | 398 kts | 179° |
| 2026-04-30 13:39 | 45.82266 | 1.02613 | 30123 ft | 397 kts | 180° |
| 2026-04-30 13:40 | 45.73974 | 1.02076 | 30125 ft | 398 kts | 183° |
| 2026-04-30 13:40 | 45.71217 | 1.01821 | 29929 ft | 395 kts | 183° |
| 2026-04-30 13:40 | 45.68463 | 1.01588 | 29088 ft | 398 kts | 182° |
| 2026-04-30 13:40 | 45.65694 | 1.01377 | 28266 ft | 399 kts | 182° |
| 2026-04-30 13:41 | 45.62911 | 1.01173 | 27413 ft | 402 kts | 182° |
| 2026-04-30 13:41 | 45.60114 | 1.00943 | 26538 ft | 404 kts | 183° |
| 2026-04-30 13:41 | 45.57298 | 1.00708 | 25631 ft | 406 kts | 183° |
| 2026-04-30 13:41 | 45.54463 | 1.00499 | 24663 ft | 408 kts | 183° |
| 2026-04-30 13:42 | 45.51616 | 1.00266 | 23646 ft | 411 kts | 183° |
| 2026-04-30 13:42 | 45.48754 | 1.00012 | 22763 ft | 410 kts | 183° |
| 2026-04-30 13:42 | 45.43262 | 0.99589 | 21963 ft | 385 kts | 182° |
| 2026-04-30 13:43 | 45.40613 | 0.99368 | 21416 ft | 378 kts | 183° |
| 2026-04-30 13:43 | 45.38013 | 0.99142 | 20902 ft | 373 kts | 183° |
| 2026-04-30 13:43 | 45.35424 | 0.98944 | 20325 ft | 371 kts | 182° |
| 2026-04-30 13:43 | 45.32868 | 0.98751 | 19751 ft | 366 kts | 182° |
| 2026-04-30 13:44 | 45.30338 | 0.98533 | 19175 ft | 363 kts | 183° |
| 2026-04-30 13:44 | 45.27830 | 0.98330 | 18598 ft | 359 kts | 182° |
| 2026-04-30 13:44 | 45.25349 | 0.98142 | 18018 ft | 355 kts | 182° |
| 2026-04-30 13:44 | 45.22890 | 0.97943 | 17452 ft | 352 kts | 183° |
| 2026-04-30 13:45 | 45.18040 | 0.97543 | 16298 ft | 346 kts | 182° |
| 2026-04-30 13:45 | 45.15650 | 0.97361 | 15723 ft | 343 kts | 182° |
| 2026-04-30 13:45 | 45.13277 | 0.97167 | 15146 ft | 340 kts | 183° |
| 2026-04-30 13:46 | 45.10921 | 0.96970 | 14578 ft | 338 kts | 182° |
| 2026-04-30 13:46 | 45.08584 | 0.96787 | 14002 ft | 335 kts | 182° |
| 2026-04-30 13:46 | 45.06258 | 0.96603 | 13378 ft | 335 kts | 182° |
| 2026-04-30 13:46 | 45.03950 | 0.96420 | 12751 ft | 330 kts | 183° |
| 2026-04-30 13:47 | 45.01725 | 0.95752 | 12130 ft | 328 kts | 205° |
| 2026-04-30 13:47 | 44.99973 | 0.93732 | 11521 ft | 329 kts | 232° |
| 2026-04-30 13:47 | 44.99048 | 0.90839 | 10919 ft | 330 kts | 255° |
| 2026-04-30 13:47 | 44.98679 | 0.87654 | 10384 ft | 326 kts | 260° |
| 2026-04-30 13:48 | 44.98374 | 0.84514 | 9932 ft | 319 kts | 261° |
| 2026-04-30 13:48 | 44.98100 | 0.81439 | 9489 ft | 313 kts | 261° |
| 2026-04-30 13:48 | 44.97832 | 0.78423 | 9034 ft | 307 kts | 261° |
| 2026-04-30 13:48 | 44.97550 | 0.75457 | 8590 ft | 302 kts | 261° |
| 2026-04-30 13:49 | 44.97256 | 0.72551 | 8238 ft | 295 kts | 260° |
| 2026-04-30 13:49 | 44.96949 | 0.69709 | 7885 ft | 292 kts | 260° |
| 2026-04-30 13:49 | 44.96640 | 0.66884 | 7513 ft | 291 kts | 259° |
| 2026-04-30 13:49 | 44.96310 | 0.64075 | 7184 ft | 288 kts | 259° |
| 2026-04-30 13:50 | 44.95976 | 0.61312 | 6832 ft | 283 kts | 259° |
| 2026-04-30 13:50 | 44.95329 | 0.55896 | 6127 ft | 276 kts | 259° |
| 2026-04-30 13:50 | 44.95015 | 0.53241 | 5783 ft | 269 kts | 259° |
| 2026-04-30 13:51 | 44.94736 | 0.50825 | 5423 ft | 234 kts | 258° |
| 2026-04-30 13:51 | 44.94475 | 0.48612 | 5033 ft | 230 kts | 258° |
| 2026-04-30 13:51 | 44.94206 | 0.46381 | 4668 ft | 236 kts | 258° |
| 2026-04-30 13:51 | 44.93925 | 0.44048 | 4311 ft | 240 kts | 258° |
| 2026-04-30 13:52 | 44.93645 | 0.41715 | 3962 ft | 242 kts | 258° |
| 2026-04-30 13:52 | 44.93356 | 0.39357 | 3624 ft | 245 kts | 258° |
| 2026-04-30 13:52 | 44.93096 | 0.37073 | 3290 ft | 222 kts | 259° |
| 2026-04-30 13:52 | 44.92867 | 0.35046 | 3101 ft | 206 kts | 258° |
| 2026-04-30 13:53 | 44.92645 | 0.33097 | 3070 ft | 197 kts | 258° |
| 2026-04-30 13:53 | 44.92381 | 0.31211 | 3047 ft | 195 kts | 247° |
| 2026-04-30 13:53 | 44.91499 | 0.29856 | 3037 ft | 189 kts | 202° |
| 2026-04-30 13:53 | 44.90257 | 0.29268 | 2988 ft | 189 kts | 192° |
| 2026-04-30 13:54 | 44.88968 | 0.28899 | 2893 ft | 189 kts | 187° |
| 2026-04-30 13:54 | 44.87667 | 0.28655 | 2790 ft | 188 kts | 185° |
| 2026-04-30 13:54 | 44.86365 | 0.28483 | 2676 ft | 188 kts | 183° |
| 2026-04-30 13:54 | 44.85099 | 0.28661 | 2610 ft | 183 kts | 152° |
| 2026-04-30 13:55 | 44.84270 | 0.29964 | 2617 ft | 179 kts | 120° |
| 2026-04-30 13:55 | 44.83737 | 0.31463 | 2608 ft | 166 kts | 111° |
| 2026-04-30 13:55 | 44.83448 | 0.32977 | 2600 ft | 158 kts | 102° |
| 2026-04-30 13:55 | 44.83313 | 0.34484 | 2518 ft | 145 kts | 97° |
| 2026-04-30 13:56 | 44.83259 | 0.35770 | 2467 ft | 120 kts | 96° |
| 2026-04-30 13:56 | 44.83221 | 0.36928 | 2454 ft | 120 kts | 94° |
| 2026-04-30 13:56 | 44.83175 | 0.38106 | 2468 ft | 120 kts | 95° |
| 2026-04-30 13:56 | 44.83127 | 0.39273 | 2469 ft | 121 kts | 97° |
| 2026-04-30 13:57 | 44.83093 | 0.40466 | 2395 ft | 122 kts | 94° |
| 2026-04-30 13:57 | 44.83078 | 0.41674 | 2145 ft | 124 kts | 95° |
| 2026-04-30 13:57 | 44.82982 | 0.42878 | 1866 ft | 123 kts | 100° |
| 2026-04-30 13:57 | 44.82858 | 0.44083 | 1520 ft | 126 kts | 100° |
| 2026-04-30 13:58 | 44.82783 | 0.45304 | 1190 ft | 124 kts | 93° |
| 2026-04-30 13:58 | 44.82677 | 0.47692 | 629 ft | 119 kts | 96° |
| 2026-04-30 13:58 | 44.82615 | 0.48856 | 466 ft | 122 kts | 97° |
| 2026-04-30 13:59 | 44.82549 | 0.50090 | 313 ft | 128 kts | 95° |
| 2026-04-30 13:59 | 44.82482 | 0.51302 | 182 ft | 115 kts | 96° |
| 2026-04-30 13:59 | 44.82437 | 0.52176 | 177 ft | 56 kts | 95° |
| 2026-04-30 13:59 | 44.82410 | 0.52624 | 176 ft | 41 kts | 95° |
| 2026-04-30 14:00 | 44.82392 | 0.52994 | 176 ft | 35 kts | 94° |
| 2026-04-30 14:00 | 44.82397 | 0.53047 | 176 ft | 21 kts | 255° |
| 2026-04-30 14:00 | 44.82397 | 0.52820 | 176 ft | 27 kts | 274° |
| 2026-04-30 14:01 | 44.82415 | 0.52522 | 177 ft | 34 kts | 275° |
| 2026-04-30 14:01 | 44.82436 | 0.52169 | 177 ft | 36 kts | 275° |
| 2026-04-30 14:01 | 44.82347 | 0.52042 | 177 ft | 20 kts | 184° |
| 2026-04-30 14:01 | 44.82286 | 0.51953 | 176 ft | 15 kts | 273° |
| 2026-04-30 14:02 | 44.82293 | 0.51806 | 177 ft | 15 kts | 274° |
| 2026-04-30 14:02 | 44.82257 | 0.51728 | 176 ft | 8 kts | 184° |
| 2026-04-30 14:02 | 44.82242 | 0.51684 | 176 ft | 4 kts | 314° |
| 2026-04-30 14:02 | 44.82255 | 0.51678 | 176 ft | 1 kts | 353° |
| 2026-04-30 14:03 | 44.82258 | 0.51677 | 176 ft | 0 kts | 347° |